Time;durP1;ratioP1;P1;durP2;ratioP2;P2;SDS_P1;SDS_P2;PMS_P1;PMS_P2;Temp;Humidity;BMP_temperature;BMP_pressure;BME280_temperature;BME280_humidity;BME280_pressure;Samples;Min_cycle;Max_cycle;Signal;HPM_P1;HPM_P2
2023/05/08 00:01:10;;;;;;;14.35;12.85;;;10.40;99.90;;;;;;5075667;28;20036;-26
2023/05/08 00:03:36;;;;;;;15.25;13.25;;;10.50;99.90;;;;;;5075689;28;20051;-24
2023/05/08 00:06:05;;;;;;;16.60;13.48;;;10.30;99.90;;;;;;5074543;28;20045;-24
2023/05/08 00:08:31;;;;;;;16.33;13.07;;;10.20;99.90;;;;;;5075612;28;20040;-25
2023/05/08 00:10:57;;;;;;;17.52;13.23;;;10.30;99.90;;;;;;5075687;28;20043;-24
2023/05/08 00:13:23;;;;;;;16.80;14.13;;;10.30;99.90;;;;;;5076076;28;20398;-24
2023/05/08 00:15:49;;;;;;;16.67;14.48;;;10.10;99.90;;;;;;5074287;28;20055;-25
2023/05/08 00:18:15;;;;;;;16.20;14.40;;;10.20;99.90;;;;;;5075415;28;20051;-24
2023/05/08 00:20:41;;;;;;;17.50;14.35;;;10.20;99.90;;;;;;5074155;28;20440;-24
2023/05/08 00:23:07;;;;;;;16.25;14.45;;;10.00;99.90;;;;;;5075315;28;20095;-24
2023/05/08 00:25:32;;;;;;;18.38;15.20;;;10.00;99.90;;;;;;5075126;28;20044;-23
2023/05/08 00:27:59;;;;;;;15.43;13.77;;;9.90;99.90;;;;;;5075680;28;20143;-25
2023/05/08 00:30:24;;;;;;;16.08;14.38;;;10.10;99.90;;;;;;5075249;28;20131;-24
2023/05/08 00:32:50;;;;;;;16.58;14.77;;;10.10;99.90;;;;;;5075142;28;20131;-24
2023/05/08 00:35:16;;;;;;;17.98;15.32;;;9.90;99.90;;;;;;5075124;28;20032;-24
2023/05/08 00:37:42;;;;;;;16.02;14.35;;;9.90;99.90;;;;;;5075042;28;20041;-25
2023/05/08 00:40:09;;;;;;;16.98;14.10;;;9.80;99.90;;;;;;5075543;28;20045;-24
2023/05/08 00:42:35;;;;;;;16.55;14.77;;;9.90;99.90;;;;;;5073743;28;20550;-25
2023/05/08 00:45:02;;;;;;;18.40;15.60;;;9.90;99.90;;;;;;5074900;28;20105;-24
2023/05/08 00:47:28;;;;;;;16.25;14.52;;;9.90;99.90;;;;;;5075424;28;20055;-25
2023/05/08 00:49:54;;;;;;;22.38;16.00;;;9.80;99.90;;;;;;5074112;28;20490;-24
2023/05/08 00:52:20;;;;;;;17.52;15.57;;;10.00;99.90;;;;;;5074084;28;20052;-24
2023/05/08 00:54:46;;;;;;;18.13;15.73;;;10.00;99.90;;;;;;5075218;28;20048;-24
2023/05/08 00:57:14;;;;;;;18.05;15.82;;;9.80;99.90;;;;;;5074599;28;20063;-24
2023/05/08 00:59:41;;;;;;;22.13;16.17;;;9.80;99.90;;;;;;5074187;28;20517;-25
2023/05/08 01:02:08;;;;;;;18.27;15.32;;;9.90;99.90;;;;;;5073825;28;20391;-24
2023/05/08 01:04:35;;;;;;;20.40;16.65;;;9.70;99.90;;;;;;5074553;28;20052;-23
2023/05/08 01:07:02;;;;;;;19.67;15.88;;;9.80;99.90;;;;;;5056886;28;20055;-24
2023/05/08 01:09:28;;;;;;;19.08;16.73;;;9.70;99.90;;;;;;5074405;28;20051;-24
2023/05/08 01:11:59;;;;;;;18.60;15.88;;;9.70;99.90;;;;;;5074336;28;20040;-24
2023/05/08 01:14:46;;;;;;;22.83;16.38;;;9.80;99.90;;;;;;5074911;28;20415;-24
2023/05/08 01:17:17;;;;;;;18.30;16.35;;;9.60;99.90;;;;;;5056752;28;20040;-24
2023/05/08 01:20:17;;;;;;;19.77;16.27;;;10.20;99.90;;;;;;5073205;28;20146;-24
2023/05/08 01:23:01;;;;;;;20.58;17.75;;;9.80;99.90;;;;;;5070676;28;20055;-25
2023/05/08 01:25:53;;;;;;;21.27;16.45;;;9.80;99.90;;;;;;5074142;28;20093;-26
2023/05/08 01:28:37;;;;;;;21.50;16.55;;;9.70;99.90;;;;;;5074934;28;20116;-26
2023/05/08 01:31:40;;;;;;;19.38;17.27;;;9.70;99.90;;;;;;5074098;28;20051;-25
2023/05/08 01:34:12;;;;;;;22.55;17.70;;;9.70;99.90;;;;;;5074543;28;20060;-25
2023/05/08 01:36:44;;;;;;;20.80;17.75;;;9.70;99.90;;;;;;5074853;28;20077;-25
2023/05/08 01:39:21;;;;;;;20.45;17.50;;;9.60;99.90;;;;;;5073411;28;20049;-25
2023/05/08 01:42:09;;;;;;;20.17;17.25;;;9.60;99.90;;;;;;5073847;28;20083;-25
2023/05/08 01:44:42;;;;;;;20.52;17.40;;;9.60;99.90;;;;;;5074185;28;20094;-25
2023/05/08 01:47:10;;;;;;;20.67;17.58;;;9.60;99.90;;;;;;5073862;28;20050;-25
2023/05/08 01:49:46;;;;;;;20.90;18.05;;;9.60;99.90;;;;;;5056636;28;20044;-25
2023/05/08 01:52:24;;;;;;;19.73;17.42;;;9.50;99.90;;;;;;5073113;28;20125;-25
2023/05/08 01:55:00;;;;;;;21.52;18.25;;;9.50;99.90;;;;;;5074068;28;20123;-25
2023/05/08 01:57:28;;;;;;;22.58;17.63;;;9.50;99.90;;;;;;5073752;28;20093;-25
2023/05/08 01:59:56;;;;;;;19.50;17.40;;;9.50;99.90;;;;;;5073622;28;20048;-25
2023/05/08 02:02:23;;;;;;;21.67;17.73;;;9.40;99.90;;;;;;5073651;28;20044;-25
2023/05/08 02:04:50;;;;;;;20.98;17.20;;;9.40;99.90;;;;;;5072918;28;20059;-25
2023/05/08 02:07:17;;;;;;;22.48;17.83;;;9.40;99.90;;;;;;5073618;28;20053;-25
2023/05/08 02:09:44;;;;;;;21.00;17.85;;;9.30;99.90;;;;;;5073542;28;20545;-25
2023/05/08 02:12:12;;;;;;;22.88;17.75;;;9.30;99.90;;;;;;5073936;28;20053;-24
2023/05/08 02:14:41;;;;;;;24.20;18.42;;;9.30;99.90;;;;;;5073122;28;20429;-25
2023/05/08 02:17:09;;;;;;;21.10;18.02;;;9.30;99.90;;;;;;5072248;28;20049;-25
2023/05/08 02:19:38;;;;;;;22.95;19.30;;;9.30;99.90;;;;;;5073190;28;20515;-25
2023/05/08 02:22:06;;;;;;;22.02;18.45;;;9.20;99.90;;;;;;5073195;28;20495;-25
2023/05/08 02:24:34;;;;;;;24.90;18.48;;;9.30;99.90;;;;;;5073454;28;20052;-25
2023/05/08 02:27:00;;;;;;;21.42;17.38;;;9.20;99.90;;;;;;5074045;28;20143;-25
2023/05/08 02:29:27;;;;;;;21.98;19.08;;;9.20;99.90;;;;;;5055511;28;20407;-24
2023/05/08 02:31:54;;;;;;;21.23;18.08;;;9.20;99.90;;;;;;5073364;28;20032;-27
2023/05/08 02:34:22;;;;;;;21.58;18.23;;;9.10;99.90;;;;;;5074533;28;20499;-25
2023/05/08 02:36:51;;;;;;;23.05;19.77;;;9.10;99.90;;;;;;5077449;28;20433;-25
2023/05/08 02:39:19;;;;;;;22.38;18.25;;;9.10;99.90;;;;;;5077293;28;20044;-25
2023/05/08 02:41:45;;;;;;;23.05;19.10;;;9.10;99.90;;;;;;5077201;28;20103;-25
2023/05/08 02:44:11;;;;;;;22.48;18.88;;;9.10;99.90;;;;;;5076275;28;20040;-25
2023/05/08 02:46:46;;;;;;;19.85;17.67;;;9.10;99.90;;;;;;5077703;28;20124;-25
2023/05/08 02:49:25;;;;;;;23.95;18.75;;;9.10;99.90;;;;;;5076497;28;20052;-25
2023/05/08 02:52:17;;;;;;;22.77;18.13;;;9.10;99.90;;;;;;5076434;28;20064;-26
2023/05/08 02:55:16;;;;;;;24.17;18.05;;;9.10;99.90;;;;;;5077024;28;20524;-25
2023/05/08 02:57:52;;;;;;;19.77;17.02;;;9.10;99.90;;;;;;5066671;28;20056;-25
2023/05/08 03:00:30;;;;;;;21.98;18.13;;;9.00;99.90;;;;;;5077142;28;20127;-25
2023/05/08 03:03:00;;;;;;;21.70;18.52;;;9.00;99.90;;;;;;5077701;28;20044;-25
2023/05/08 03:05:31;;;;;;;24.77;18.60;;;9.00;99.90;;;;;;5075524;28;20060;-25
2023/05/08 03:08:02;;;;;;;21.77;18.85;;;8.90;99.90;;;;;;5076050;28;20425;-26
2023/05/08 03:10:32;;;;;;;23.13;18.95;;;8.90;99.90;;;;;;5077581;28;20051;-25
2023/05/08 03:13:01;;;;;;;23.98;19.20;;;8.90;99.90;;;;;;5076034;28;20045;-25
2023/05/08 03:15:34;;;;;;;23.60;19.45;;;8.80;99.90;;;;;;5076629;28;20463;-25
2023/05/08 03:18:06;;;;;;;24.83;19.95;;;8.90;99.90;;;;;;5076481;28;20052;-25
2023/05/08 03:20:37;;;;;;;25.20;17.98;;;8.80;99.90;;;;;;5076524;28;20059;-25
2023/05/08 03:23:05;;;;;;;21.95;18.10;;;8.70;99.90;;;;;;5076814;28;20056;-25
2023/05/08 03:25:32;;;;;;;22.08;19.25;;;8.80;99.90;;;;;;5076427;28;20052;-26
2023/05/08 03:27:59;;;;;;;23.15;19.15;;;8.80;99.90;;;;;;5076293;28;20053;-25
2023/05/08 03:30:26;;;;;;;21.35;18.52;;;8.80;99.90;;;;;;5076575;28;20623;-25
2023/05/08 03:32:53;;;;;;;21.63;18.92;;;8.70;99.90;;;;;;5076579;28;20048;-25
2023/05/08 03:35:20;;;;;;;21.90;18.38;;;8.80;99.90;;;;;;5076281;28;20053;-25
2023/05/08 03:37:46;;;;;;;21.58;18.17;;;8.70;99.90;;;;;;5075523;28;20067;-25
2023/05/08 03:40:12;;;;;;;22.80;17.67;;;8.70;99.90;;;;;;5076933;28;20044;-25
2023/05/08 03:42:39;;;;;;;23.67;18.50;;;8.70;99.90;;;;;;5076149;28;20489;-25
2023/05/08 03:45:08;;;;;;;23.58;19.60;;;8.60;99.90;;;;;;5058715;28;20063;-26
2023/05/08 03:47:35;;;;;;;23.13;19.88;;;8.70;99.90;;;;;;5074814;28;20052;-26
2023/05/08 03:50:02;;;;;;;22.83;19.00;;;8.70;99.90;;;;;;5075959;28;20074;-27
2023/05/08 03:52:29;;;;;;;25.05;19.10;;;8.70;99.90;;;;;;5075887;28;20553;-25
2023/05/08 03:54:54;;;;;;;25.23;20.60;;;8.70;99.90;;;;;;5058521;28;20053;-25
2023/05/08 03:57:24;;;;;;;22.63;19.70;;;8.60;99.90;;;;;;5074824;28;20055;-26
2023/05/08 04:00:01;;;;;;;22.85;20.20;;;8.60;99.90;;;;;;5076211;28;20106;-25
2023/05/08 04:02:41;;;;;;;23.40;18.35;;;8.60;99.90;;;;;;5075783;28;20379;-25
2023/05/08 04:05:38;;;;;;;22.10;18.92;;;8.70;99.90;;;;;;5074821;28;20050;-25
2023/05/08 04:08:26;;;;;;;21.83;18.50;;;8.60;99.90;;;;;;5075605;28;20052;-26
2023/05/08 04:11:05;;;;;;;22.77;19.50;;;8.60;99.90;;;;;;5072039;28;20052;-25
2023/05/08 04:13:35;;;;;;;24.83;20.17;;;8.60;99.90;;;;;;5075642;28;20088;-25
2023/05/08 04:16:31;;;;;;;22.05;17.30;;;8.60;99.90;;;;;;5076162;28;20048;-25
2023/05/08 04:19:01;;;;;;;21.00;18.48;;;8.70;99.90;;;;;;5075353;28;20053;-25
2023/05/08 04:21:30;;;;;;;22.23;18.75;;;8.70;99.90;;;;;;5041027;28;20483;-25
2023/05/08 04:23:57;;;;;;;23.40;18.75;;;8.70;99.90;;;;;;5075359;28;20054;-25
2023/05/08 04:26:23;;;;;;;22.95;18.92;;;8.80;99.90;;;;;;5075211;28;20052;-25
2023/05/08 04:28:50;;;;;;;21.52;18.73;;;8.90;99.90;;;;;;5075226;28;20049;-25
2023/05/08 04:31:16;;;;;;;20.98;18.35;;;8.90;99.90;;;;;;5075998;28;20040;-25
2023/05/08 04:33:44;;;;;;;22.10;17.83;;;9.00;99.90;;;;;;5074035;28;20544;-25
2023/05/08 04:36:13;;;;;;;22.08;17.75;;;9.00;99.90;;;;;;5075013;28;20051;-25
2023/05/08 04:38:40;;;;;;;18.63;16.63;;;9.10;99.90;;;;;;5074841;28;20045;-25
2023/05/08 04:41:06;;;;;;;20.48;17.13;;;9.10;99.90;;;;;;5074673;28;20518;-26
2023/05/08 04:43:35;;;;;;;18.52;16.52;;;9.20;99.90;;;;;;5074750;28;20084;-25
2023/05/08 04:46:03;;;;;;;19.30;16.35;;;9.20;99.90;;;;;;5073807;28;20491;-25
2023/05/08 04:48:31;;;;;;;19.52;17.15;;;9.30;99.90;;;;;;5074653;28;20056;-25
2023/05/08 04:50:57;;;;;;;21.30;16.77;;;9.40;99.90;;;;;;5075326;28;20097;-25
2023/05/08 04:53:23;;;;;;;19.70;16.40;;;9.40;99.90;;;;;;5056711;28;20044;-26
2023/05/08 04:55:48;;;;;;;16.80;15.02;;;9.50;99.90;;;;;;5074448;28;20093;-25
2023/05/08 04:58:14;;;;;;;18.02;14.98;;;9.50;99.90;;;;;;5072639;28;20048;-25
2023/05/08 05:00:40;;;;;;;17.77;15.23;;;9.60;99.90;;;;;;5074701;28;20040;-26
2023/05/08 05:03:06;;;;;;;16.98;15.18;;;9.60;99.90;;;;;;5073327;28;20488;-25
2023/05/08 05:05:33;;;;;;;18.90;15.32;;;9.70;99.90;;;;;;5040278;28;20098;-25
2023/05/08 05:07:59;;;;;;;17.27;15.13;;;9.70;99.90;;;;;;5075227;28;20124;-25
2023/05/08 05:10:25;;;;;;;18.23;15.27;;;9.80;99.90;;;;;;5074986;28;20453;-25
2023/05/08 05:12:50;;;;;;;17.05;14.90;;;9.90;99.90;;;;;;5074064;28;20044;-25
2023/05/08 05:15:16;;;;;;;15.38;13.32;;;10.00;99.90;;;;;;5074308;28;20190;-26
2023/05/08 05:17:42;;;;;;;16.08;14.32;;;10.00;99.90;;;;;;5073615;28;20135;-25
2023/05/08 05:20:08;;;;;;;17.60;14.00;;;10.10;99.90;;;;;;5074172;28;20503;-25
2023/05/08 05:22:34;;;;;;;15.60;13.00;;;10.10;99.90;;;;;;5074125;28;20044;-25
2023/05/08 05:24:59;;;;;;;15.20;13.60;;;10.20;99.90;;;;;;5056521;28;20036;-25
2023/05/08 05:27:25;;;;;;;14.35;12.73;;;10.20;99.90;;;;;;5074259;28;20057;-25
2023/05/08 05:29:51;;;;;;;15.18;13.35;;;10.30;99.90;;;;;;5056689;28;20047;-25
2023/05/08 05:32:17;;;;;;;15.13;12.45;;;10.40;99.90;;;;;;5074024;28;20070;-25
2023/05/08 05:34:42;;;;;;;13.30;11.98;;;10.50;99.90;;;;;;5073968;28;20044;-25
2023/05/08 05:37:08;;;;;;;14.20;12.65;;;10.70;99.90;;;;;;5073939;28;20136;-25
2023/05/08 05:39:35;;;;;;;13.43;12.05;;;11.40;99.90;;;;;;5072967;28;20062;-26
2023/05/08 05:42:00;;;;;;;15.15;12.85;;;12.30;99.90;;;;;;5074648;28;20437;-25
2023/05/08 05:44:26;;;;;;;13.23;11.82;;;13.00;24.60;;;;;;5073832;28;20558;-25
2023/05/08 05:46:53;;;;;;;14.07;12.40;;;13.80;1.00;;;;;;5074084;28;20127;-26
2023/05/08 05:49:18;;;;;;;13.98;12.60;;;14.00;1.00;;;;;;5072809;28;20102;-24
2023/05/08 05:51:44;;;;;;;12.40;11.20;;;14.40;99.90;;;;;;5072616;28;20041;-25
2023/05/08 05:54:09;;;;;;;12.07;10.88;;;14.50;99.90;;;;;;5073811;28;20055;-25
2023/05/08 05:56:36;;;;;;;12.20;11.00;;;14.60;1.00;;;;;;5073696;28;20077;-26
2023/05/08 05:59:02;;;;;;;12.18;10.98;;;14.60;99.90;;;;;;5073821;28;20363;-25
2023/05/08 06:01:27;;;;;;;12.23;11.00;;;14.70;99.90;;;;;;5073648;28;20047;-26
2023/05/08 06:03:54;;;;;;;13.40;10.82;;;14.90;99.90;;;;;;5073690;28;20109;-25
2023/05/08 06:06:19;;;;;;;12.13;10.93;;;15.20;99.90;;;;;;5073632;28;20049;-26
2023/05/08 06:08:45;;;;;;;12.57;10.75;;;15.40;39.00;;;;;;5072349;28;20079;-25
2023/05/08 06:11:11;;;;;;;13.02;10.55;;;15.50;1.00;;;;;;5073567;28;20048;-25
2023/05/08 06:13:39;;;;;;;11.68;10.27;;;15.50;1.00;;;;;;5072909;28;20044;-25
2023/05/08 06:16:06;;;;;;;10.18;9.20;;;15.60;1.00;;;;;;5074352;28;20386;-25
2023/05/08 06:18:32;;;;;;;10.77;9.75;;;15.50;1.00;;;;;;5073592;28;20118;-25
2023/05/08 06:20:58;;;;;;;10.40;9.38;;;14.90;1.00;;;;;;5073987;28;20081;-25
2023/05/08 06:23:25;;;;;;;11.38;10.13;;;14.40;1.00;;;;;;5073420;28;20045;-25
2023/05/08 06:25:51;;;;;;;9.80;8.90;;;14.10;99.90;;;;;;5055650;28;20083;-27
2023/05/08 06:28:17;;;;;;;12.27;10.48;;;13.90;99.90;;;;;;5073529;28;20139;-26
2023/05/08 06:30:43;;;;;;;12.00;9.98;;;13.80;1.00;;;;;;5073960;28;20084;-25
2023/05/08 06:33:10;;;;;;;10.38;9.38;;;13.70;1.00;;;;;;5073666;28;20044;-25
2023/05/08 06:35:36;;;;;;;11.30;10.20;;;13.70;1.00;;;;;;5072087;28;20223;-25
2023/05/08 06:38:02;;;;;;;11.10;9.90;;;13.70;1.00;;;;;;5073628;28;20055;-25
2023/05/08 06:40:28;;;;;;;11.27;10.07;;;13.70;1.00;;;;;;5073509;28;20045;-26
2023/05/08 06:42:53;;;;;;;10.80;9.73;;;13.70;1.00;;;;;;5073834;28;20470;-25
2023/05/08 06:45:19;;;;;;;12.82;9.98;;;13.70;49.80;;;;;;5073272;28;20101;-25
2023/05/08 06:47:45;;;;;;;10.55;9.55;;;13.70;5.20;;;;;;5073287;28;20040;-25
2023/05/08 06:50:10;;;;;;;9.95;8.95;;;13.60;1.00;;;;;;5073385;28;20044;-26
2023/05/08 06:52:36;;;;;;;9.50;8.52;;;13.70;49.00;;;;;;5073178;28;20123;-26
2023/05/08 06:55:02;;;;;;;10.10;9.07;;;13.70;90.00;;;;;;5073189;28;20045;-26
2023/05/08 06:57:29;;;;;;;11.43;10.25;;;13.70;66.90;;;;;;5073630;28;20045;-25
2023/05/08 06:59:55;;;;;;;11.13;10.02;;;13.80;99.90;;;;;;5072349;28;20053;-25
2023/05/08 07:02:21;;;;;;;15.00;12.40;;;13.90;99.90;;;;;;5072108;28;20078;-26
2023/05/08 07:04:47;;;;;;;11.20;10.10;;;14.10;94.80;;;;;;5073065;28;20045;-26
2023/05/08 07:07:14;;;;;;;10.13;9.10;;;14.00;56.90;;;;;;5071854;28;20530;-25
2023/05/08 07:09:40;;;;;;;11.20;9.50;;;14.10;55.00;;;;;;5071747;28;20052;-27
2023/05/08 07:12:06;;;;;;;10.48;9.48;;;14.10;1.00;;;;;;5073006;28;20211;-26
2023/05/08 07:14:31;;;;;;;10.27;9.27;;;14.10;1.00;;;;;;5071799;28;20055;-26
2023/05/08 07:16:57;;;;;;;11.65;9.32;;;14.10;12.70;;;;;;5072963;28;20045;-26
2023/05/08 07:19:23;;;;;;;10.50;9.50;;;14.20;1.00;;;;;;5055322;28;20135;-25
2023/05/08 07:21:49;;;;;;;11.52;10.15;;;14.20;1.00;;;;;;5075445;28;20044;-26
2023/05/08 07:24:15;;;;;;;10.45;9.35;;;14.20;1.00;;;;;;5076462;28;20479;-26
2023/05/08 07:26:41;;;;;;;13.77;9.05;;;14.30;1.00;;;;;;5076324;28;20143;-25
2023/05/08 07:29:07;;;;;;;10.75;9.75;;;14.40;1.00;;;;;;5075658;28;20097;-26
2023/05/08 07:31:33;;;;;;;10.13;9.10;;;14.60;1.00;;;;;;5075092;28;20079;-26
2023/05/08 07:33:59;;;;;;;10.57;9.43;;;14.60;1.00;;;;;;5075123;28;20048;-27
2023/05/08 07:36:25;;;;;;;10.32;9.18;;;14.70;1.00;;;;;;5076225;28;20131;-25
2023/05/08 07:38:51;;;;;;;10.57;9.48;;;14.70;1.00;;;;;;5077056;28;20178;-25
2023/05/08 07:41:16;;;;;;;11.35;10.25;;;14.70;1.00;;;;;;5076448;28;20041;-25
2023/05/08 07:43:43;;;;;;;11.50;10.40;;;14.90;1.00;;;;;;5076115;28;20397;-25
2023/05/08 07:46:15;;;;;;;11.82;9.32;;;15.00;1.00;;;;;;5076613;28;20056;-25
2023/05/08 07:48:41;;;;;;;10.98;9.88;;;15.20;1.00;;;;;;5075747;28;20516;-26
2023/05/08 07:51:09;;;;;;;12.70;10.30;;;15.30;1.00;;;;;;5074471;28;20123;-25
2023/05/08 07:53:34;;;;;;;11.88;10.70;;;15.30;99.90;;;;;;5075622;28;20045;-26
2023/05/08 07:56:00;;;;;;;12.50;9.82;;;15.50;99.90;;;;;;5074766;28;20048;-26
2023/05/08 07:58:26;;;;;;;10.98;9.82;;;15.70;1.00;;;;;;5075873;28;20131;-26
2023/05/08 08:00:52;;;;;;;10.27;9.30;;;15.90;99.90;;;;;;5076036;28;20045;-26
2023/05/08 08:03:18;;;;;;;10.77;9.75;;;16.00;99.90;;;;;;5074567;28;20053;-26
2023/05/08 08:05:44;;;;;;;10.82;9.73;;;16.00;99.90;;;;;;5058807;28;20053;-26
2023/05/08 08:08:09;;;;;;;10.82;9.77;;;16.30;99.90;;;;;;5075683;28;20051;-25
2023/05/08 08:10:35;;;;;;;10.35;9.32;;;16.60;99.90;;;;;;5075578;28;20198;-26
2023/05/08 08:13:01;;;;;;;10.57;9.32;;;16.90;99.90;;;;;;5075550;28;20040;-25
2023/05/08 08:15:27;;;;;;;10.18;9.18;;;17.00;99.90;;;;;;5075533;28;20083;-26
2023/05/08 08:17:53;;;;;;;10.82;9.75;;;17.20;1.00;;;;;;5076116;28;20173;-26
2023/05/08 08:20:19;;;;;;;10.50;9.50;;;17.40;10.30;;;;;;5075308;28;20041;-26
2023/05/08 08:22:45;;;;;;;11.15;9.98;;;17.60;1.00;;;;;;5075863;28;20047;-25
2023/05/08 08:25:11;;;;;;;13.05;9.57;;;17.70;1.00;;;;;;5075861;28;20055;-26
2023/05/08 08:27:36;;;;;;;9.63;8.57;;;18.00;99.90;;;;;;5056882;28;20056;-24
2023/05/08 08:30:04;;;;;;;10.52;9.43;;;18.10;99.90;;;;;;5075273;28;20048;-26
2023/05/08 08:32:30;;;;;;;10.02;9.07;;;18.20;99.90;;;;;;5075178;28;20051;-26
2023/05/08 08:34:55;;;;;;;10.25;9.25;;;18.40;99.90;;;;;;5075042;28;20126;-26
2023/05/08 08:37:21;;;;;;;10.23;9.13;;;18.50;99.90;;;;;;5056964;28;20049;-24
2023/05/08 08:39:47;;;;;;;9.57;8.68;;;18.60;16.50;;;;;;5074370;28;20513;-26
2023/05/08 08:42:13;;;;;;;10.57;9.27;;;18.90;40.40;;;;;;5073849;28;20098;-26
2023/05/08 08:44:39;;;;;;;10.48;9.48;;;19.10;1.00;;;;;;5075425;28;20084;-26
2023/05/08 08:47:05;;;;;;;9.93;8.57;;;19.30;99.90;;;;;;5073956;28;20040;-26
2023/05/08 08:49:34;;;;;;;10.60;9.60;;;19.60;1.00;;;;;;5086212;28;20040;-26
2023/05/08 08:52:30;;;;;;;10.30;9.20;;;19.50;99.90;;;;;;5094505;28;20059;-26
2023/05/08 08:55:01;;;;;;;9.80;8.90;;;19.50;99.90;;;;;;5093859;28;20055;-26
2023/05/08 08:57:31;;;;;;;9.98;8.98;;;19.40;99.90;;;;;;5095236;28;20448;-26
2023/05/08 08:59:58;;;;;;;12.55;9.85;;;19.40;99.90;;;;;;5078824;28;20080;-26
2023/05/08 09:02:26;;;;;;;11.07;9.80;;;19.40;99.90;;;;;;5074502;28;20075;-26
2023/05/08 09:04:52;;;;;;;10.35;8.98;;;19.40;99.90;;;;;;5076388;28;20461;-26
2023/05/08 09:07:18;;;;;;;9.82;8.93;;;19.50;99.90;;;;;;5092821;28;20076;-26
2023/05/08 09:09:45;;;;;;;10.80;9.48;;;19.50;99.90;;;;;;5087656;28;20052;-26
2023/05/08 09:12:12;;;;;;;9.95;9.05;;;19.60;99.90;;;;;;5080677;28;20098;-26
2023/05/08 09:14:38;;;;;;;9.48;8.57;;;19.80;1.00;;;;;;5073107;28;20088;-26
2023/05/08 09:17:03;;;;;;;10.23;9.23;;;19.80;33.00;;;;;;5076574;28;20079;-26
2023/05/08 09:19:30;;;;;;;10.00;9.10;;;20.10;1.00;;;;;;5076876;28;20520;-27
2023/05/08 09:21:59;;;;;;;9.93;9.02;;;19.90;99.90;;;;;;5074348;28;20074;-27
2023/05/08 09:24:26;;;;;;;10.05;9.20;;;20.30;99.90;;;;;;5074103;28;20056;-27
2023/05/08 09:26:52;;;;;;;10.55;9.60;;;20.40;99.90;;;;;;5080688;28;20390;-26
2023/05/08 09:29:22;;;;;;;10.55;9.55;;;20.70;99.90;;;;;;5094260;28;20047;-27
2023/05/08 09:31:50;;;;;;;9.95;8.85;;;20.70;75.30;;;;;;5094251;28;20040;-26
2023/05/08 09:34:26;;;;;;;9.73;8.68;;;20.90;1.00;;;;;;5094733;28;20082;-27
2023/05/08 09:37:08;;;;;;;10.07;9.00;;;21.30;1.00;;;;;;5088098;28;20517;-27
2023/05/08 09:39:34;;;;;;;11.13;9.43;;;22.60;99.90;;;;;;5084486;28;20048;-26
2023/05/08 09:42:01;;;;;;;10.23;9.20;;;22.60;99.90;;;;;;5073803;28;20067;-26
2023/05/08 09:44:27;;;;;;;10.38;9.10;;;22.90;1.00;;;;;;5080816;28;20169;-27
2023/05/08 09:47:13;;;;;;;9.57;8.60;;;23.70;1.00;;;;;;5094118;28;20540;-28
2023/05/08 09:49:39;;;;;;;9.55;8.65;;;24.20;99.90;;;;;;5093879;28;20047;-27
2023/05/08 09:52:06;;;;;;;9.82;8.93;;;23.80;99.90;;;;;;5094009;28;20101;-27
2023/05/08 09:54:32;;;;;;;9.25;8.35;;;23.70;99.90;;;;;;5093157;28;20056;-27
2023/05/08 09:56:58;;;;;;;9.23;8.32;;;23.80;99.90;;;;;;5081016;28;20047;-26
2023/05/08 09:59:29;;;;;;;9.02;8.20;;;24.00;99.90;;;;;;5073676;28;20078;-27
2023/05/08 10:01:56;;;;;;;9.43;8.45;;;24.00;99.90;;;;;;5072409;28;20115;-27
2023/05/08 10:04:35;;;;;;;9.27;8.35;;;24.10;99.90;;;;;;5072671;28;20040;-27
2023/05/08 10:07:02;;;;;;;9.98;8.82;;;24.30;99.90;;;;;;5073083;28;20053;-26
2023/05/08 10:09:27;;;;;;;9.52;8.63;;;24.70;99.90;;;;;;5072985;28;20053;-26
2023/05/08 10:11:54;;;;;;;9.52;8.23;;;25.00;99.90;;;;;;5077675;28;20055;-27
2023/05/08 10:14:21;;;;;;;9.75;8.85;;;25.20;67.40;;;;;;5073579;28;20179;-27
2023/05/08 10:16:49;;;;;;;9.57;8.13;;;25.20;1.00;;;;;;5072295;28;20051;-27
2023/05/08 10:19:17;;;;;;;9.18;8.25;;;25.20;1.00;;;;;;5072553;28;20052;-26
2023/05/08 10:21:51;;;;;;;9.93;9.02;;;25.20;1.00;;;;;;5073335;28;20044;-26
2023/05/08 10:24:19;;;;;;;9.15;8.35;;;25.10;1.00;;;;;;5073962;28;20036;-26
2023/05/08 10:27:06;;;;;;;9.27;8.38;;;25.20;1.00;;;;;;5072542;28;20209;-28
2023/05/08 10:29:40;;;;;;;8.88;8.07;;;24.90;1.00;;;;;;5072869;28;20563;-26
2023/05/08 10:32:09;;;;;;;10.35;9.05;;;24.90;36.00;;;;;;5072747;28;20055;-26
2023/05/08 10:34:40;;;;;;;9.98;9.07;;;25.90;1.00;;;;;;5073206;28;20047;-27
2023/05/08 10:37:09;;;;;;;10.02;9.02;;;25.80;1.00;;;;;;5072240;28;20079;-25
2023/05/08 10:39:35;;;;;;;9.93;9.02;;;26.00;1.00;;;;;;5083175;28;20048;-27
2023/05/08 10:42:01;;;;;;;10.38;9.32;;;26.20;1.00;;;;;;5092969;28;20040;-27
2023/05/08 10:44:28;;;;;;;10.20;9.20;;;26.40;1.00;;;;;;5092198;28;20161;-27
2023/05/08 10:47:07;;;;;;;10.63;9.52;;;26.70;1.00;;;;;;5085268;28;20126;-25
2023/05/08 10:49:44;;;;;;;9.45;8.65;;;26.70;1.00;;;;;;5085471;28;20051;-27
2023/05/08 10:53:02;;;;;;;10.73;8.93;;;26.90;1.00;;;;;;5091866;28;20083;-26
2023/05/08 10:55:35;;;;;;;8.68;7.93;;;26.80;99.90;;;;;;5039853;28;20124;-27
2023/05/08 10:58:01;;;;;;;11.15;10.10;;;26.20;1.00;;;;;;5082688;28;20043;-26
2023/05/08 11:00:32;;;;;;;10.32;9.35;;;26.30;1.00;;;;;;5081890;28;20509;-26
2023/05/08 11:03:05;;;;;;;11.27;10.10;;;26.40;99.90;;;;;;5086035;28;20054;-27
2023/05/08 11:05:47;;;;;;;12.40;11.05;;;26.30;99.90;;;;;;5095806;28;20441;-27
2023/05/08 11:08:23;;;;;;;10.60;9.63;;;25.60;99.90;;;;;;5096915;28;20059;-27
2023/05/08 11:13:30;;;;;;;11.23;10.20;;;26.70;1.00;;;;;;5096894;28;20048;-26
2023/05/08 11:15:55;;;;;;;12.75;10.43;;;26.70;99.90;;;;;;5096950;28;20044;-27
2023/05/08 11:18:23;;;;;;;10.45;9.35;;;27.00;99.90;;;;;;5097196;28;20509;-27
2023/05/08 11:21:03;;;;;;;10.90;9.90;;;27.20;99.90;;;;;;5089889;28;20051;-26
2023/05/08 11:23:32;;;;;;;11.63;10.63;;;27.50;99.90;;;;;;5089479;28;20417;-27
2023/05/08 11:26:12;;;;;;;12.07;9.60;;;27.40;99.90;;;;;;5096654;28;20410;-26
2023/05/08 11:28:40;;;;;;;11.88;10.45;;;27.60;99.90;;;;;;5096162;28;20059;-27
2023/05/08 11:31:07;;;;;;;11.52;10.32;;;27.70;99.90;;;;;;5095368;28;20056;-28
2023/05/08 11:33:37;;;;;;;10.80;9.82;;;27.40;99.90;;;;;;5074950;28;20102;-27
2023/05/08 11:36:06;;;;;;;11.35;10.25;;;28.00;99.90;;;;;;5077165;28;20102;-26
2023/05/08 11:38:34;;;;;;;11.50;10.40;;;27.80;99.90;;;;;;5076897;28;20048;-27
2023/05/08 11:41:05;;;;;;;13.93;10.68;;;27.40;99.90;;;;;;5058465;28;20084;-27
2023/05/08 11:43:31;;;;;;;12.33;10.43;;;27.50;99.90;;;;;;5076331;28;20040;-27
2023/05/08 11:46:07;;;;;;;11.10;9.98;;;27.70;99.90;;;;;;5074882;28;20054;-25
2023/05/08 11:48:33;;;;;;;10.80;9.80;;;28.00;99.90;;;;;;5076008;28;20076;-26
2023/05/08 11:51:00;;;;;;;11.65;10.52;;;28.50;99.90;;;;;;5075566;28;20032;-27
2023/05/08 11:53:26;;;;;;;11.13;10.13;;;29.00;99.90;;;;;;5084884;28;20105;-27
2023/05/08 11:55:53;;;;;;;11.48;10.43;;;29.10;99.90;;;;;;5076202;28;20523;-28
2023/05/08 11:58:19;;;;;;;11.32;10.32;;;29.20;99.90;;;;;;5075237;28;20056;-27
2023/05/08 12:00:46;;;;;;;11.15;10.20;;;29.20;99.90;;;;;;5075700;28;20398;-27
2023/05/08 12:03:12;;;;;;;12.18;10.98;;;29.30;99.90;;;;;;5075827;28;20059;-27
2023/05/08 12:05:39;;;;;;;11.52;10.50;;;29.70;99.90;;;;;;5075381;28;20044;-27
2023/05/08 12:08:06;;;;;;;12.25;11.05;;;30.00;99.90;;;;;;5075737;28;20048;-28
2023/05/08 12:10:39;;;;;;;11.80;10.70;;;30.30;99.90;;;;;;5075659;28;20047;-27
2023/05/08 12:13:16;;;;;;;11.57;10.43;;;30.30;99.90;;;;;;5074559;28;20053;-27
2023/05/08 12:15:41;;;;;;;11.63;10.55;;;29.90;99.90;;;;;;5075171;28;20505;-28
2023/05/08 12:18:07;;;;;;;12.35;11.05;;;29.40;99.90;;;;;;5058167;28;20044;-28
2023/05/08 12:20:33;;;;;;;11.75;10.65;;;28.50;99.90;;;;;;5074400;28;20049;-27
2023/05/08 12:23:02;;;;;;;13.57;12.38;;;28.00;99.90;;;;;;5074783;28;20088;-28
2023/05/08 12:25:28;;;;;;;12.90;11.65;;;28.00;99.90;;;;;;5075354;28;20482;-27
2023/05/08 12:27:54;;;;;;;13.68;12.40;;;27.70;99.90;;;;;;5075273;28;20057;-28
2023/05/08 12:30:20;;;;;;;13.23;12.02;;;28.20;99.90;;;;;;5081618;28;20063;-28
2023/05/08 12:32:46;;;;;;;12.77;11.68;;;28.20;99.90;;;;;;5074394;28;20052;-30
2023/05/08 12:35:12;;;;;;;11.70;10.65;;;28.30;99.90;;;;;;5083468;28;20044;-28
2023/05/08 12:37:39;;;;;;;12.48;11.27;;;28.30;99.90;;;;;;5095349;28;20036;-28
2023/05/08 12:40:06;;;;;;;12.75;11.20;;;27.80;99.90;;;;;;5084474;28;20075;-27
2023/05/08 12:42:49;;;;;;;12.40;11.27;;;27.30;99.90;;;;;;5094110;28;20052;-27
2023/05/08 12:45:23;;;;;;;13.63;12.25;;;26.70;99.90;;;;;;5095236;28;20048;-27
2023/05/08 12:47:51;;;;;;;14.35;11.95;;;26.20;99.90;;;;;;5095989;28;20402;-28
2023/05/08 12:50:21;;;;;;;13.32;11.98;;;25.80;99.90;;;;;;5092091;28;20186;-28